createdAt,value
2024-03-02T00:21:01.982Z,66.47
2024-03-02T01:58:58.816Z,70.00
2024-03-02T02:02:30.144Z,60.00
2024-03-02T02:09:16.550Z,64.60
2024-03-02T02:18:59.351Z,73.40
2024-03-02T02:36:40.030Z,63.23
2024-03-02T02:43:47.699Z,69.10
2024-03-02T03:04:55.276Z,64.37
2024-03-02T06:04:55.328Z,71.00
2024-03-02T06:07:21.729Z,64.77
2024-03-02T06:09:49.639Z,75.77
2024-03-02T06:12:16.245Z,75.33
2024-03-02T06:14:42.804Z,74.53
2024-03-02T06:17:09.277Z,77.17
2024-03-02T06:19:35.715Z,84.43
2024-03-02T06:22:02.219Z,65.80
2024-03-02T06:24:28.706Z,73.87
2024-03-02T06:26:55.210Z,90.67
2024-03-02T06:29:22.957Z,82.93
2024-03-02T06:31:51.244Z,87.97
2024-03-02T06:34:19.779Z,69.70
2024-03-02T06:36:47.944Z,75.57
2024-03-02T06:39:14.480Z,70.97
2024-03-02T06:41:40.925Z,104.90
2024-03-02T06:44:07.631Z,88.40
2024-03-02T06:46:34.331Z,81.63
2024-03-02T06:49:00.976Z,72.97
2024-03-02T06:51:27.578Z,88.77
2024-03-02T06:53:56.036Z,82.83
2024-03-02T06:56:22.788Z,84.27
2024-03-02T06:58:49.500Z,94.73
2024-03-02T07:01:16.489Z,105.87
2024-03-02T07:03:43.095Z,87.00
2024-03-02T07:06:09.567Z,106.70
2024-03-02T07:08:36.069Z,128.63
2024-03-02T07:11:03.877Z,106.10
2024-03-02T07:13:33.678Z,109.50
2024-03-02T07:23:42.861Z,104.13
2024-03-02T07:32:57.756Z,89.03
2024-03-02T07:47:36.872Z,104.67
2024-03-02T07:50:04.759Z,94.20
2024-03-02T07:52:31.422Z,103.17
2024-03-02T07:54:58.116Z,88.63
2024-03-02T07:57:25.229Z,83.87
2024-03-02T07:59:52.425Z,82.10
2024-03-02T08:02:19.321Z,85.87
2024-03-02T08:31:40.546Z,83.53
2024-03-02T08:45:06.310Z,74.40
2024-03-02T09:01:23.609Z,71.97
2024-03-02T09:03:50.550Z,71.77
2024-03-02T09:06:22.612Z,69.53
2024-03-02T09:08:52.865Z,84.40
2024-03-02T09:11:28.224Z,82.67
2024-03-02T09:14:06.413Z,76.03
2024-03-02T09:19:55.341Z,80.47
2024-03-02T09:22:24.896Z,76.73
2024-03-02T09:24:53.301Z,82.13
2024-03-02T09:27:21.895Z,71.67
2024-03-02T09:29:57.803Z,76.53
2024-03-02T09:32:27.811Z,77.10
2024-03-02T09:35:17.448Z,77.50
2024-03-02T09:37:58.782Z,70.97
2024-03-02T09:40:25.416Z,72.83
2024-03-02T09:42:54.206Z,68.40
2024-03-02T09:45:24.987Z,68.97
2024-03-02T09:47:52.014Z,67.33
2024-03-02T09:50:21.424Z,73.43
2024-03-02T09:52:52.789Z,68.63
2024-03-02T09:55:22.988Z,69.17
2024-03-02T09:57:51.418Z,63.70
2024-03-02T10:03:19.439Z,64.93
2024-03-02T10:05:59.374Z,60.70
2024-03-02T10:11:40.606Z,59.37
2024-03-02T10:14:10.128Z,58.23
2024-03-02T10:16:42.070Z,56.77
2024-03-02T10:19:19.248Z,60.40
2024-03-02T10:21:55.761Z,60.07
2024-03-02T10:24:23.598Z,55.47
2024-03-02T10:26:50.959Z,57.53
2024-03-02T10:29:17.699Z,53.07
2024-03-02T10:31:47.545Z,58.43
2024-03-02T10:34:15.174Z,51.43
2024-03-02T10:36:46.594Z,52.77
2024-03-02T10:39:15.137Z,51.83
2024-03-02T10:41:42.188Z,51.77
2024-03-02T10:44:10.429Z,51.80
2024-03-02T10:46:38.806Z,47.90
2024-03-02T10:49:08.629Z,49.60
2024-03-02T10:51:37.909Z,46.60
2024-03-02T10:54:05.670Z,49.73
2024-03-02T10:56:40.582Z,50.20
2024-03-02T10:59:28.204Z,49.87
2024-03-02T11:02:05.042Z,48.53
2024-03-02T11:04:32.747Z,45.60
2024-03-02T11:07:19.181Z,42.17
2024-03-02T11:10:00.716Z,47.80
2024-03-02T11:12:52.421Z,46.27
2024-03-02T11:15:22.646Z,44.80
2024-03-02T11:17:50.141Z,41.60
2024-03-02T11:20:17.089Z,45.50
2024-03-02T11:22:45.442Z,42.53
2024-03-02T11:25:26.053Z,41.97
2024-03-02T11:27:56.304Z,43.57
2024-03-02T11:30:35.255Z,42.57
2024-03-02T11:33:11.735Z,40.10
2024-03-02T11:35:49.537Z,42.63
2024-03-02T11:38:17.920Z,42.33
2024-03-02T11:40:47.907Z,39.57
2024-03-02T11:43:15.230Z,41.93
2024-03-02T11:45:45.171Z,36.90
2024-03-02T11:48:15.198Z,37.63
2024-03-02T11:50:45.263Z,38.30
2024-03-02T11:53:13.616Z,40.37
2024-03-02T11:55:41.825Z,39.33
2024-03-02T11:58:09.366Z,38.33
2024-03-02T12:00:36.442Z,38.97
2024-03-02T12:03:08.103Z,41.03
2024-03-02T12:05:35.868Z,36.17
2024-03-02T12:08:04.426Z,37.53
2024-03-02T12:10:33.377Z,41.67
2024-03-02T12:13:01.083Z,33.07
2024-03-02T12:15:29.916Z,39.97
2024-03-02T12:17:57.872Z,37.60
2024-03-02T12:20:25.392Z,36.90
2024-03-02T12:22:53.729Z,38.63
2024-03-02T12:25:25.275Z,39.63
2024-03-02T12:27:54.585Z,35.40
2024-03-02T12:30:22.346Z,39.33
2024-03-02T12:32:49.382Z,34.30
2024-03-02T12:35:18.281Z,40.23
2024-03-02T12:37:49.726Z,37.13
2024-03-02T12:40:20.389Z,38.17
2024-03-02T12:42:52.068Z,36.50
2024-03-02T12:45:25.923Z,37.17
2024-03-02T12:47:53.682Z,37.67
2024-03-02T12:50:20.952Z,36.13
2024-03-02T12:52:55.001Z,36.23
2024-03-02T12:55:26.106Z,36.37
2024-03-02T12:57:53.746Z,32.63
2024-03-02T13:00:22.229Z,34.20
2024-03-02T13:02:50.175Z,34.50
2024-03-02T13:05:16.877Z,36.93
2024-03-02T13:07:43.629Z,33.07
2024-03-02T13:10:10.627Z,36.13
2024-03-02T13:12:38.895Z,33.23
2024-03-02T13:15:06.698Z,33.20
2024-03-02T13:17:37.964Z,33.17
2024-03-02T13:20:09.515Z,34.50
2024-03-02T13:22:36.273Z,37.00
2024-03-02T13:25:05.359Z,34.67
2024-03-02T13:27:34.095Z,37.37
2024-03-02T13:30:00.957Z,33.60
2024-03-02T13:32:27.652Z,34.90
2024-03-02T13:34:54.279Z,31.50
2024-03-02T13:37:22.135Z,36.60
2024-03-02T13:39:48.669Z,35.53
2024-03-02T13:42:16.454Z,31.03
2024-03-02T13:44:49.356Z,35.10
2024-03-02T13:47:19.412Z,32.60
2024-03-02T13:49:47.960Z,34.77
2024-03-02T13:52:15.068Z,36.33
2024-03-02T13:54:43.306Z,32.93
2024-03-02T13:57:11.576Z,33.87
2024-03-02T13:59:38.649Z,32.53
2024-03-02T14:02:10.374Z,33.50
2024-03-02T14:04:38.635Z,34.60
2024-03-02T14:07:08.553Z,33.10
2024-03-02T14:09:37.243Z,32.47
2024-03-02T14:12:05.109Z,29.17
2024-03-02T14:14:31.883Z,33.43
2024-03-02T14:17:01.755Z,33.67
2024-03-02T14:19:28.907Z,33.47
2024-03-02T14:21:55.733Z,35.00
2024-03-02T14:24:25.255Z,38.77
2024-03-02T14:26:52.568Z,32.70
2024-03-02T14:29:21.437Z,29.93
2024-03-02T14:31:49.367Z,35.60
2024-03-02T14:34:17.056Z,33.47
2024-03-02T14:36:47.969Z,32.73
2024-03-02T14:39:15.234Z,29.93
2024-03-02T14:41:42.050Z,34.83
2024-03-02T14:44:08.589Z,30.67
2024-03-02T14:46:35.125Z,33.67
2024-03-02T14:49:01.707Z,32.30
2024-03-02T14:51:28.449Z,30.33
2024-03-02T14:53:54.987Z,31.03
2024-03-02T14:56:21.423Z,32.67
2024-03-02T14:58:48.238Z,30.60
2024-03-02T15:01:15.347Z,31.57
2024-03-02T15:03:42.201Z,28.60
2024-03-02T15:06:09.084Z,31.20
2024-03-02T15:08:36.505Z,29.93
2024-03-02T15:11:05.365Z,31.90
2024-03-02T15:13:31.991Z,30.63
2024-03-02T15:15:58.690Z,26.90
2024-03-02T15:18:25.373Z,30.10
2024-03-02T15:20:52.346Z,26.47
2024-03-02T15:23:18.916Z,28.57
2024-03-02T15:25:45.657Z,29.07
2024-03-02T15:28:12.170Z,29.37
2024-03-02T15:30:38.943Z,30.10
2024-03-02T15:33:05.540Z,25.23
2024-03-02T15:35:32.498Z,26.00
2024-03-02T15:37:59.047Z,25.90
2024-03-02T15:40:25.814Z,27.03
2024-03-02T15:42:52.388Z,26.93
2024-03-02T15:45:18.981Z,30.27
2024-03-02T15:47:47.692Z,28.40
2024-03-02T15:50:15.949Z,29.77
2024-03-02T15:52:43.369Z,27.47
2024-03-02T15:55:10.305Z,27.87
2024-03-02T15:57:37.386Z,27.90
2024-03-02T16:00:06.275Z,26.27
2024-03-02T16:02:33.226Z,25.57
2024-03-02T16:04:59.667Z,30.37
2024-03-02T16:07:26.104Z,28.93
2024-03-02T16:09:54.474Z,28.40
2024-03-02T16:12:21.450Z,27.10
2024-03-02T16:14:47.906Z,25.83
2024-03-02T16:17:14.372Z,26.93
2024-03-02T16:19:42.187Z,29.57
2024-03-02T16:22:12.347Z,26.30
2024-03-02T16:24:39.061Z,24.27
2024-03-02T16:27:05.553Z,27.40
2024-03-02T16:29:31.970Z,26.57
2024-03-02T16:31:58.440Z,25.63
2024-03-02T16:34:24.979Z,28.13
2024-03-02T16:36:51.550Z,28.10
2024-03-02T16:39:18.441Z,28.20
2024-03-02T16:41:48.097Z,28.53
2024-03-02T16:44:15.542Z,26.07
2024-03-02T16:46:44.428Z,32.07
2024-03-02T16:49:11.067Z,28.40
2024-03-02T16:51:44.774Z,26.13
2024-03-02T16:54:11.524Z,26.83
2024-03-02T16:56:45.267Z,25.83
2024-03-02T16:59:13.011Z,25.83
2024-03-02T17:01:41.060Z,23.60
2024-03-02T17:04:08.457Z,27.37
2024-03-02T17:06:35.478Z,27.60
2024-03-02T17:09:02.558Z,26.87
2024-03-02T17:11:31.396Z,34.33
2024-03-02T17:14:01.123Z,26.60
2024-03-02T17:16:27.693Z,25.83
2024-03-02T17:18:54.323Z,28.17
2024-03-02T17:21:21.054Z,35.07
2024-03-02T17:23:48.962Z,29.27
2024-03-02T17:26:15.460Z,30.60
2024-03-02T17:28:42.920Z,29.70
2024-03-02T17:31:13.131Z,30.13
2024-03-02T17:33:39.912Z,28.00
2024-03-02T17:36:06.911Z,29.00
2024-03-02T17:38:35.535Z,29.93
2024-03-02T17:41:03.924Z,30.00
2024-03-02T17:43:30.712Z,28.57
2024-03-02T17:45:57.343Z,31.47
2024-03-02T17:48:24.182Z,26.87
2024-03-02T17:50:51.506Z,30.80
2024-03-02T17:53:18.756Z,29.60
2024-03-02T17:55:45.752Z,31.67
2024-03-02T17:58:13.199Z,34.60
2024-03-02T18:00:40.278Z,33.07
2024-03-02T18:03:07.127Z,33.50
2024-03-02T18:05:34.169Z,32.83
2024-03-02T18:08:01.014Z,33.50
2024-03-02T18:10:29.969Z,33.17
2024-03-02T18:12:57.344Z,29.83
2024-03-02T18:15:23.801Z,33.70
2024-03-02T18:17:50.206Z,33.40
2024-03-02T18:20:17.128Z,29.03
2024-03-02T18:22:43.618Z,30.17
2024-03-02T18:25:10.815Z,29.67
2024-03-02T18:27:37.446Z,34.13
2024-03-02T18:30:06.631Z,35.40
2024-03-02T18:32:33.959Z,29.40
2024-03-02T18:35:00.876Z,30.90
2024-03-02T18:37:28.098Z,33.20
2024-03-02T18:39:54.872Z,31.50
2024-03-02T18:42:21.358Z,26.03
2024-03-02T18:44:51.004Z,26.30
2024-03-02T18:47:18.069Z,25.30
2024-03-02T18:49:46.350Z,26.17
2024-03-02T18:52:13.694Z,29.20
2024-03-02T18:54:42.492Z,20.73
2024-03-02T18:57:10.830Z,25.43
2024-03-02T18:59:37.516Z,26.70
2024-03-02T19:02:06.218Z,23.57
2024-03-02T19:04:32.946Z,23.97
2024-03-02T19:07:00.100Z,23.13
2024-03-02T19:09:26.973Z,21.67
2024-03-02T19:11:55.837Z,20.60
2024-03-02T19:14:22.245Z,19.43
2024-03-02T19:16:48.725Z,20.67
2024-03-02T19:19:16.727Z,24.43
2024-03-02T19:21:44.005Z,22.77
2024-03-02T19:24:12.232Z,25.73
2024-03-02T19:26:38.914Z,22.10
2024-03-02T19:29:06.015Z,22.13
2024-03-02T19:31:32.517Z,25.47
2024-03-02T19:33:59.246Z,24.83
2024-03-02T19:36:26.890Z,21.67
2024-03-02T19:38:53.639Z,21.67
2024-03-02T19:41:20.259Z,22.10
2024-03-02T19:43:46.787Z,22.27
2024-03-02T19:46:13.314Z,21.37
2024-03-02T19:48:40.096Z,20.60
2024-03-02T19:51:10.711Z,22.20
2024-03-02T19:53:37.610Z,20.57
2024-03-02T19:56:05.441Z,18.40
2024-03-02T19:58:33.570Z,19.77
2024-03-02T20:01:00.474Z,21.30
2024-03-02T20:03:27.299Z,19.47
2024-03-02T20:05:54.144Z,23.60
2024-03-02T20:08:21.855Z,24.57
2024-03-02T20:10:48.309Z,25.30
2024-03-02T20:13:14.912Z,23.30
2024-03-02T20:15:41.847Z,23.73
2024-03-02T20:18:08.443Z,24.80
2024-03-02T20:20:34.911Z,25.50
2024-03-02T20:23:02.298Z,24.43
2024-03-02T20:25:29.458Z,30.30
2024-03-02T20:27:56.076Z,33.03
2024-03-02T20:30:24.430Z,26.27
2024-03-02T20:32:54.246Z,28.17
2024-03-02T20:35:22.041Z,23.93
2024-03-02T20:37:49.230Z,27.83
2024-03-02T20:40:20.968Z,28.60
2024-03-02T20:42:47.530Z,29.17
2024-03-02T20:45:19.074Z,27.50
2024-03-02T20:47:46.334Z,29.57
2024-03-02T20:50:13.165Z,28.50
2024-03-02T20:52:41.619Z,27.13
2024-03-02T20:55:08.755Z,26.23
2024-03-02T20:57:35.571Z,24.13
2024-03-02T21:00:02.102Z,22.50
2024-03-02T21:02:29.248Z,25.00
2024-03-02T21:04:58.845Z,26.13
2024-03-02T21:07:25.397Z,23.47
2024-03-02T21:09:52.695Z,22.17
2024-03-02T21:12:19.448Z,23.33
2024-03-02T21:14:45.924Z,26.23
2024-03-02T21:17:12.617Z,31.57
2024-03-02T21:19:39.318Z,29.23
2024-03-02T21:22:07.529Z,25.13
2024-03-02T21:24:34.241Z,25.90
2024-03-02T21:27:01.040Z,28.70
2024-03-02T21:29:27.549Z,27.83
2024-03-02T21:31:57.176Z,28.43
2024-03-02T21:34:23.899Z,29.70
2024-03-02T21:36:50.824Z,24.73
2024-03-02T21:39:17.515Z,26.53
2024-03-02T21:41:45.687Z,29.43
2024-03-02T21:44:13.012Z,31.50
2024-03-02T21:46:40.950Z,34.00
2024-03-02T21:49:07.478Z,36.47
2024-03-02T21:51:36.210Z,40.57
2024-03-02T21:54:04.142Z,35.90
2024-03-02T21:56:30.657Z,36.60
2024-03-02T21:58:57.484Z,34.43
2024-03-02T22:01:24.958Z,37.33
2024-03-02T22:03:51.495Z,31.77
2024-03-02T22:06:17.949Z,31.77
2024-03-02T22:08:44.595Z,30.43
2024-03-02T22:11:13.166Z,32.00
2024-03-02T22:13:39.631Z,28.30
2024-03-02T22:16:06.456Z,31.10
2024-03-02T22:18:33.163Z,26.17
2024-03-02T22:20:59.715Z,25.20
2024-03-02T22:23:26.111Z,24.97
2024-03-02T22:25:52.664Z,30.80
2024-03-02T22:28:19.159Z,28.13
2024-03-02T22:30:45.786Z,26.20
2024-03-02T22:33:12.294Z,26.07
2024-03-02T22:35:41.097Z,25.60
2024-03-02T22:38:07.829Z,31.93
2024-03-02T22:40:34.340Z,35.17
2024-03-02T22:43:01.077Z,32.83
2024-03-02T22:45:29.974Z,31.43
2024-03-02T22:47:56.505Z,31.07
2024-03-02T22:50:24.910Z,32.80
2024-03-02T22:52:51.985Z,29.00
2024-03-02T22:55:18.840Z,29.13
2024-03-02T22:57:45.467Z,25.33
2024-03-02T23:00:42.212Z,27.17
2024-03-02T23:03:08.722Z,32.03
2024-03-02T23:05:35.207Z,31.03
2024-03-02T23:08:02.246Z,28.20
2024-03-02T23:10:28.673Z,30.23
2024-03-02T23:12:55.154Z,27.27
2024-03-02T23:15:21.594Z,29.53
2024-03-02T23:17:48.416Z,25.77
2024-03-02T23:20:15.199Z,24.17
2024-03-02T23:22:43.647Z,23.70
2024-03-02T23:25:10.418Z,27.03
2024-03-02T23:27:37.170Z,26.80
2024-03-02T23:30:04.132Z,32.70
2024-03-02T23:32:32.397Z,28.43
2024-03-02T23:34:58.866Z,26.60
2024-03-02T23:37:25.502Z,26.20
2024-03-02T23:40:04.102Z,25.90
2024-03-02T23:42:32.494Z,27.07
2024-03-02T23:44:59.075Z,24.57
2024-03-02T23:47:25.875Z,24.47
2024-03-02T23:49:54.868Z,25.33
2024-03-02T23:52:21.406Z,28.20
2024-03-02T23:54:49.324Z,28.30
2024-03-02T23:57:16.051Z,23.03
2024-03-02T23:59:43.112Z,27.60
